sensor_id;sensor_type;location;lat;lon;timestamp;P1;durP1;ratioP1;P2;durP2;ratioP2
19179;SDS011;9722;48.754;8.868;2023-07-31T00:02:12;1.20;;;1.10;;
19179;SDS011;9722;48.754;8.868;2023-07-31T00:05:32;2.33;;;1.10;;
19179;SDS011;9722;48.754;8.868;2023-07-31T00:08:52;2.33;;;1.40;;
19179;SDS011;9722;48.754;8.868;2023-07-31T00:12:13;2.50;;;2.30;;
19179;SDS011;9722;48.754;8.868;2023-07-31T00:15:33;2.80;;;1.57;;
19179;SDS011;9722;48.754;8.868;2023-07-31T00:18:54;1.57;;;1.20;;
19179;SDS011;9722;48.754;8.868;2023-07-31T00:22:14;2.53;;;1.30;;
19179;SDS011;9722;48.754;8.868;2023-07-31T00:25:35;2.23;;;1.70;;
19179;SDS011;9722;48.754;8.868;2023-07-31T00:28:55;3.03;;;1.30;;
19179;SDS011;9722;48.754;8.868;2023-07-31T00:32:16;2.43;;;1.30;;
19179;SDS011;9722;48.754;8.868;2023-07-31T00:35:36;2.13;;;1.40;;
19179;SDS011;9722;48.754;8.868;2023-07-31T00:38:57;4.70;;;1.60;;
19179;SDS011;9722;48.754;8.868;2023-07-31T00:42:18;1.50;;;1.33;;
19179;SDS011;9722;48.754;8.868;2023-07-31T00:45:38;1.30;;;1.20;;
19179;SDS011;9722;48.754;8.868;2023-07-31T00:48:59;1.83;;;1.50;;
19179;SDS011;9722;48.754;8.868;2023-07-31T00:52:20;1.97;;;1.20;;
19179;SDS011;9722;48.754;8.868;2023-07-31T00:55:40;1.40;;;1.30;;
19179;SDS011;9722;48.754;8.868;2023-07-31T00:59:02;2.03;;;1.40;;
19179;SDS011;9722;48.754;8.868;2023-07-31T01:02:22;2.93;;;1.37;;
19179;SDS011;9722;48.754;8.868;2023-07-31T01:05:48;1.40;;;1.30;;
19179;SDS011;9722;48.754;8.868;2023-07-31T01:09:19;1.83;;;1.43;;
19179;SDS011;9722;48.754;8.868;2023-07-31T01:12:56;1.90;;;1.13;;
19179;SDS011;9722;48.754;8.868;2023-07-31T01:16:17;1.67;;;1.20;;
19179;SDS011;9722;48.754;8.868;2023-07-31T01:19:38;3.23;;;1.37;;
19179;SDS011;9722;48.754;8.868;2023-07-31T01:23:12;2.50;;;1.37;;
19179;SDS011;9722;48.754;8.868;2023-07-31T01:27:06;2.17;;;1.40;;
19179;SDS011;9722;48.754;8.868;2023-07-31T01:30:32;1.73;;;1.40;;
19179;SDS011;9722;48.754;8.868;2023-07-31T01:33:56;4.17;;;1.60;;
19179;SDS011;9722;48.754;8.868;2023-07-31T01:37:19;2.80;;;1.57;;
19179;SDS011;9722;48.754;8.868;2023-07-31T01:40:41;3.27;;;1.43;;
19179;SDS011;9722;48.754;8.868;2023-07-31T01:44:02;1.67;;;1.30;;
19179;SDS011;9722;48.754;8.868;2023-07-31T01:47:22;2.80;;;1.53;;
19179;SDS011;9722;48.754;8.868;2023-07-31T01:50:43;2.23;;;1.40;;
19179;SDS011;9722;48.754;8.868;2023-07-31T01:54:04;3.33;;;1.60;;
19179;SDS011;9722;48.754;8.868;2023-07-31T01:57:25;2.33;;;1.50;;
19179;SDS011;9722;48.754;8.868;2023-07-31T02:00:45;1.63;;;1.27;;
19179;SDS011;9722;48.754;8.868;2023-07-31T02:04:06;2.33;;;1.27;;
19179;SDS011;9722;48.754;8.868;2023-07-31T02:07:26;2.13;;;1.30;;
19179;SDS011;9722;48.754;8.868;2023-07-31T02:10:47;2.23;;;1.27;;
19179;SDS011;9722;48.754;8.868;2023-07-31T02:14:07;2.17;;;1.47;;
19179;SDS011;9722;48.754;8.868;2023-07-31T02:17:28;1.57;;;1.23;;
19179;SDS011;9722;48.754;8.868;2023-07-31T02:20:50;1.80;;;1.23;;
19179;SDS011;9722;48.754;8.868;2023-07-31T02:24:11;2.23;;;1.40;;
19179;SDS011;9722;48.754;8.868;2023-07-31T02:27:31;2.00;;;1.33;;
19179;SDS011;9722;48.754;8.868;2023-07-31T02:30:52;2.60;;;1.40;;
19179;SDS011;9722;48.754;8.868;2023-07-31T02:34:12;2.77;;;1.50;;
19179;SDS011;9722;48.754;8.868;2023-07-31T02:37:33;3.93;;;1.50;;
19179;SDS011;9722;48.754;8.868;2023-07-31T02:40:54;1.27;;;1.10;;
19179;SDS011;9722;48.754;8.868;2023-07-31T02:44:14;3.20;;;1.57;;
19179;SDS011;9722;48.754;8.868;2023-07-31T02:47:35;2.87;;;1.47;;
19179;SDS011;9722;48.754;8.868;2023-07-31T02:50:55;1.47;;;1.37;;
19179;SDS011;9722;48.754;8.868;2023-07-31T02:54:16;1.87;;;1.40;;
19179;SDS011;9722;48.754;8.868;2023-07-31T02:57:36;2.23;;;1.30;;
19179;SDS011;9722;48.754;8.868;2023-07-31T03:00:58;3.90;;;1.43;;
19179;SDS011;9722;48.754;8.868;2023-07-31T03:04:18;1.47;;;1.30;;
19179;SDS011;9722;48.754;8.868;2023-07-31T03:07:39;2.20;;;1.20;;
19179;SDS011;9722;48.754;8.868;2023-07-31T03:10:59;2.47;;;1.20;;
19179;SDS011;9722;48.754;8.868;2023-07-31T03:14:20;2.73;;;1.60;;
19179;SDS011;9722;48.754;8.868;2023-07-31T03:17:40;2.83;;;1.30;;
19179;SDS011;9722;48.754;8.868;2023-07-31T03:21:01;1.50;;;1.40;;
19179;SDS011;9722;48.754;8.868;2023-07-31T03:24:21;1.43;;;1.20;;
19179;SDS011;9722;48.754;8.868;2023-07-31T03:27:42;1.73;;;1.40;;
19179;SDS011;9722;48.754;8.868;2023-07-31T03:31:02;1.60;;;1.30;;
19179;SDS011;9722;48.754;8.868;2023-07-31T03:34:23;1.77;;;1.30;;
19179;SDS011;9722;48.754;8.868;2023-07-31T03:37:43;2.87;;;1.53;;
19179;SDS011;9722;48.754;8.868;2023-07-31T03:41:04;2.23;;;1.30;;
19179;SDS011;9722;48.754;8.868;2023-07-31T03:44:26;1.60;;;1.37;;
19179;SDS011;9722;48.754;8.868;2023-07-31T03:47:46;2.33;;;1.40;;
19179;SDS011;9722;48.754;8.868;2023-07-31T03:51:07;2.67;;;1.43;;
19179;SDS011;9722;48.754;8.868;2023-07-31T03:54:27;4.00;;;1.37;;
19179;SDS011;9722;48.754;8.868;2023-07-31T03:57:48;2.37;;;1.40;;
19179;SDS011;9722;48.754;8.868;2023-07-31T04:01:08;1.60;;;1.27;;
19179;SDS011;9722;48.754;8.868;2023-07-31T04:04:29;2.13;;;1.20;;
19179;SDS011;9722;48.754;8.868;2023-07-31T04:07:49;1.57;;;1.20;;
19179;SDS011;9722;48.754;8.868;2023-07-31T04:11:10;1.60;;;1.30;;
19179;SDS011;9722;48.754;8.868;2023-07-31T04:14:31;2.67;;;1.60;;
19179;SDS011;9722;48.754;8.868;2023-07-31T04:17:52;2.43;;;1.50;;
19179;SDS011;9722;48.754;8.868;2023-07-31T04:21:12;3.17;;;1.43;;
19179;SDS011;9722;48.754;8.868;2023-07-31T04:24:33;2.37;;;1.37;;
19179;SDS011;9722;48.754;8.868;2023-07-31T04:27:53;1.90;;;1.37;;
19179;SDS011;9722;48.754;8.868;2023-07-31T04:31:14;3.17;;;1.40;;
19179;SDS011;9722;48.754;8.868;2023-07-31T04:34:34;1.70;;;1.23;;
19179;SDS011;9722;48.754;8.868;2023-07-31T04:37:55;2.47;;;1.40;;
19179;SDS011;9722;48.754;8.868;2023-07-31T04:41:15;1.97;;;1.40;;
19179;SDS011;9722;48.754;8.868;2023-07-31T04:44:36;3.13;;;1.60;;
19179;SDS011;9722;48.754;8.868;2023-07-31T04:47:56;1.97;;;1.27;;
19179;SDS011;9722;48.754;8.868;2023-07-31T04:51:17;1.30;;;1.10;;
19179;SDS011;9722;48.754;8.868;2023-07-31T04:54:37;3.77;;;1.90;;
19179;SDS011;9722;48.754;8.868;2023-07-31T04:57:58;1.40;;;1.20;;
19179;SDS011;9722;48.754;8.868;2023-07-31T05:01:19;2.03;;;1.30;;
19179;SDS011;9722;48.754;8.868;2023-07-31T05:04:40;2.70;;;1.50;;
19179;SDS011;9722;48.754;8.868;2023-07-31T05:08:00;2.83;;;1.40;;
19179;SDS011;9722;48.754;8.868;2023-07-31T05:11:21;2.83;;;1.40;;
19179;SDS011;9722;48.754;8.868;2023-07-31T05:14:41;3.40;;;1.33;;
19179;SDS011;9722;48.754;8.868;2023-07-31T05:18:02;2.33;;;1.20;;
19179;SDS011;9722;48.754;8.868;2023-07-31T05:21:22;2.33;;;1.20;;
19179;SDS011;9722;48.754;8.868;2023-07-31T05:24:44;2.17;;;1.40;;
19179;SDS011;9722;48.754;8.868;2023-07-31T05:28:04;2.47;;;1.37;;
19179;SDS011;9722;48.754;8.868;2023-07-31T05:31:25;1.63;;;1.03;;
19179;SDS011;9722;48.754;8.868;2023-07-31T05:34:45;1.50;;;1.40;;
19179;SDS011;9722;48.754;8.868;2023-07-31T05:38:06;1.57;;;1.23;;
19179;SDS011;9722;48.754;8.868;2023-07-31T05:41:26;2.73;;;1.50;;
19179;SDS011;9722;48.754;8.868;2023-07-31T05:44:47;2.10;;;1.47;;
19179;SDS011;9722;48.754;8.868;2023-07-31T05:48:07;1.53;;;1.30;;
19179;SDS011;9722;48.754;8.868;2023-07-31T05:51:28;2.27;;;1.40;;
19179;SDS011;9722;48.754;8.868;2023-07-31T05:54:48;1.47;;;1.33;;
19179;SDS011;9722;48.754;8.868;2023-07-31T05:58:09;3.53;;;1.13;;
19179;SDS011;9722;48.754;8.868;2023-07-31T06:01:29;3.30;;;1.23;;
19179;SDS011;9722;48.754;8.868;2023-07-31T06:04:50;1.33;;;1.13;;
19179;SDS011;9722;48.754;8.868;2023-07-31T06:08:10;3.67;;;1.27;;
19179;SDS011;9722;48.754;8.868;2023-07-31T06:11:31;2.13;;;1.23;;
19179;SDS011;9722;48.754;8.868;2023-07-31T06:14:51;1.87;;;1.20;;
19179;SDS011;9722;48.754;8.868;2023-07-31T06:18:12;1.97;;;1.20;;
19179;SDS011;9722;48.754;8.868;2023-07-31T06:21:33;2.07;;;1.23;;
19179;SDS011;9722;48.754;8.868;2023-07-31T06:24:53;3.47;;;1.50;;
19179;SDS011;9722;48.754;8.868;2023-07-31T06:28:14;2.63;;;1.50;;
19179;SDS011;9722;48.754;8.868;2023-07-31T06:31:34;2.67;;;1.33;;
19179;SDS011;9722;48.754;8.868;2023-07-31T06:34:55;1.93;;;1.20;;
19179;SDS011;9722;48.754;8.868;2023-07-31T06:38:16;1.70;;;1.23;;
19179;SDS011;9722;48.754;8.868;2023-07-31T06:41:38;2.27;;;1.20;;
19179;SDS011;9722;48.754;8.868;2023-07-31T06:44:59;2.27;;;1.43;;
19179;SDS011;9722;48.754;8.868;2023-07-31T06:48:19;2.47;;;1.20;;
19179;SDS011;9722;48.754;8.868;2023-07-31T06:51:40;3.17;;;1.50;;
19179;SDS011;9722;48.754;8.868;2023-07-31T06:55:15;2.77;;;1.27;;
19179;SDS011;9722;48.754;8.868;2023-07-31T06:58:38;2.67;;;1.30;;
19179;SDS011;9722;48.754;8.868;2023-07-31T07:01:59;2.43;;;1.23;;
19179;SDS011;9722;48.754;8.868;2023-07-31T07:05:20;2.27;;;1.50;;
19179;SDS011;9722;48.754;8.868;2023-07-31T07:08:40;3.27;;;1.40;;
19179;SDS011;9722;48.754;8.868;2023-07-31T07:12:01;1.77;;;1.20;;
19179;SDS011;9722;48.754;8.868;2023-07-31T07:15:22;3.33;;;1.77;;
19179;SDS011;9722;48.754;8.868;2023-07-31T07:18:42;2.60;;;1.27;;
19179;SDS011;9722;48.754;8.868;2023-07-31T07:22:03;3.77;;;1.43;;
19179;SDS011;9722;48.754;8.868;2023-07-31T07:25:24;2.60;;;1.30;;
19179;SDS011;9722;48.754;8.868;2023-07-31T07:28:44;2.23;;;1.30;;
19179;SDS011;9722;48.754;8.868;2023-07-31T07:32:05;2.00;;;1.33;;
19179;SDS011;9722;48.754;8.868;2023-07-31T07:35:25;2.93;;;1.50;;
19179;SDS011;9722;48.754;8.868;2023-07-31T07:38:46;2.80;;;1.37;;
19179;SDS011;9722;48.754;8.868;2023-07-31T07:42:06;2.67;;;1.50;;
19179;SDS011;9722;48.754;8.868;2023-07-31T07:45:27;2.30;;;1.40;;
19179;SDS011;9722;48.754;8.868;2023-07-31T07:48:48;1.70;;;1.37;;
19179;SDS011;9722;48.754;8.868;2023-07-31T07:52:09;3.43;;;1.10;;
19179;SDS011;9722;48.754;8.868;2023-07-31T07:55:29;1.93;;;1.53;;
19179;SDS011;9722;48.754;8.868;2023-07-31T07:58:50;1.83;;;1.50;;
19179;SDS011;9722;48.754;8.868;2023-07-31T08:02:11;2.83;;;1.60;;
19179;SDS011;9722;48.754;8.868;2023-07-31T08:05:31;3.43;;;1.50;;
19179;SDS011;9722;48.754;8.868;2023-07-31T08:08:54;3.87;;;1.50;;
19179;SDS011;9722;48.754;8.868;2023-07-31T08:12:14;4.03;;;1.40;;
19179;SDS011;9722;48.754;8.868;2023-07-31T08:15:35;2.13;;;1.50;;
19179;SDS011;9722;48.754;8.868;2023-07-31T08:18:55;2.80;;;1.53;;
19179;SDS011;9722;48.754;8.868;2023-07-31T08:22:16;2.00;;;1.40;;
19179;SDS011;9722;48.754;8.868;2023-07-31T08:25:36;2.10;;;1.37;;
19179;SDS011;9722;48.754;8.868;2023-07-31T08:28:57;1.93;;;1.50;;
19179;SDS011;9722;48.754;8.868;2023-07-31T08:32:18;3.03;;;1.47;;
19179;SDS011;9722;48.754;8.868;2023-07-31T08:35:38;5.40;;;1.50;;
19179;SDS011;9722;48.754;8.868;2023-07-31T08:38:58;2.93;;;1.77;;
19179;SDS011;9722;48.754;8.868;2023-07-31T08:42:19;1.87;;;1.70;;
19179;SDS011;9722;48.754;8.868;2023-07-31T08:45:41;3.73;;;1.53;;
19179;SDS011;9722;48.754;8.868;2023-07-31T08:49:04;3.10;;;1.73;;
19179;SDS011;9722;48.754;8.868;2023-07-31T08:52:26;2.93;;;1.73;;
19179;SDS011;9722;48.754;8.868;2023-07-31T08:55:47;2.37;;;1.70;;
19179;SDS011;9722;48.754;8.868;2023-07-31T08:59:09;2.63;;;1.63;;
19179;SDS011;9722;48.754;8.868;2023-07-31T09:02:42;3.60;;;1.70;;
19179;SDS011;9722;48.754;8.868;2023-07-31T09:06:06;3.33;;;1.73;;
19179;SDS011;9722;48.754;8.868;2023-07-31T09:09:27;2.43;;;1.53;;
19179;SDS011;9722;48.754;8.868;2023-07-31T09:12:48;5.77;;;1.90;;
19179;SDS011;9722;48.754;8.868;2023-07-31T09:16:11;3.53;;;1.80;;
19179;SDS011;9722;48.754;8.868;2023-07-31T09:19:33;2.73;;;1.53;;
19179;SDS011;9722;48.754;8.868;2023-07-31T09:22:56;4.30;;;1.97;;
19179;SDS011;9722;48.754;8.868;2023-07-31T09:26:34;2.97;;;1.77;;
19179;SDS011;9722;48.754;8.868;2023-07-31T09:29:59;3.13;;;1.80;;
19179;SDS011;9722;48.754;8.868;2023-07-31T09:33:20;4.10;;;1.80;;
19179;SDS011;9722;48.754;8.868;2023-07-31T09:36:44;3.57;;;1.83;;
19179;SDS011;9722;48.754;8.868;2023-07-31T09:40:10;3.83;;;1.60;;
19179;SDS011;9722;48.754;8.868;2023-07-31T09:43:52;2.27;;;1.87;;
19179;SDS011;9722;48.754;8.868;2023-07-31T09:47:20;2.77;;;1.77;;
19179;SDS011;9722;48.754;8.868;2023-07-31T09:50:48;2.10;;;1.90;;
19179;SDS011;9722;48.754;8.868;2023-07-31T09:54:12;3.90;;;1.80;;
19179;SDS011;9722;48.754;8.868;2023-07-31T09:57:34;3.43;;;2.20;;
19179;SDS011;9722;48.754;8.868;2023-07-31T10:00:58;2.03;;;1.73;;
19179;SDS011;9722;48.754;8.868;2023-07-31T10:04:19;3.60;;;1.90;;
19179;SDS011;9722;48.754;8.868;2023-07-31T10:07:51;2.63;;;1.83;;
19179;SDS011;9722;48.754;8.868;2023-07-31T10:11:14;3.77;;;1.93;;
19179;SDS011;9722;48.754;8.868;2023-07-31T10:14:36;3.00;;;1.97;;
19179;SDS011;9722;48.754;8.868;2023-07-31T10:17:58;2.93;;;1.83;;
19179;SDS011;9722;48.754;8.868;2023-07-31T10:21:20;2.47;;;1.80;;
19179;SDS011;9722;48.754;8.868;2023-07-31T10:24:41;2.93;;;1.80;;
19179;SDS011;9722;48.754;8.868;2023-07-31T10:28:04;3.67;;;1.97;;
19179;SDS011;9722;48.754;8.868;2023-07-31T10:31:26;2.53;;;1.63;;
19179;SDS011;9722;48.754;8.868;2023-07-31T10:34:48;2.63;;;1.63;;
19179;SDS011;9722;48.754;8.868;2023-07-31T10:38:10;1.90;;;1.70;;
19179;SDS011;9722;48.754;8.868;2023-07-31T10:41:32;1.80;;;1.50;;
19179;SDS011;9722;48.754;8.868;2023-07-31T10:44:52;1.87;;;1.60;;
19179;SDS011;9722;48.754;8.868;2023-07-31T10:48:19;2.77;;;1.77;;
19179;SDS011;9722;48.754;8.868;2023-07-31T10:51:39;2.07;;;1.60;;
19179;SDS011;9722;48.754;8.868;2023-07-31T10:55:23;2.30;;;1.80;;
19179;SDS011;9722;48.754;8.868;2023-07-31T10:58:44;3.23;;;1.73;;
19179;SDS011;9722;48.754;8.868;2023-07-31T11:02:06;2.80;;;1.93;;
19179;SDS011;9722;48.754;8.868;2023-07-31T11:05:46;2.83;;;1.70;;
19179;SDS011;9722;48.754;8.868;2023-07-31T11:09:24;2.53;;;1.80;;
19179;SDS011;9722;48.754;8.868;2023-07-31T11:12:50;3.80;;;2.23;;
19179;SDS011;9722;48.754;8.868;2023-07-31T11:16:11;2.83;;;2.20;;
19179;SDS011;9722;48.754;8.868;2023-07-31T11:19:33;2.17;;;1.90;;
19179;SDS011;9722;48.754;8.868;2023-07-31T11:22:53;2.20;;;1.90;;
19179;SDS011;9722;48.754;8.868;2023-07-31T11:26:14;2.77;;;1.87;;
19179;SDS011;9722;48.754;8.868;2023-07-31T11:29:35;4.00;;;2.20;;
19179;SDS011;9722;48.754;8.868;2023-07-31T11:32:55;4.00;;;1.80;;
19179;SDS011;9722;48.754;8.868;2023-07-31T11:36:17;2.77;;;2.00;;
19179;SDS011;9722;48.754;8.868;2023-07-31T11:39:39;3.17;;;2.10;;
19179;SDS011;9722;48.754;8.868;2023-07-31T11:43:03;2.63;;;1.87;;
19179;SDS011;9722;48.754;8.868;2023-07-31T11:46:24;2.53;;;1.97;;
19179;SDS011;9722;48.754;8.868;2023-07-31T11:49:44;4.33;;;2.03;;
19179;SDS011;9722;48.754;8.868;2023-07-31T11:53:06;4.17;;;2.10;;
19179;SDS011;9722;48.754;8.868;2023-07-31T11:56:28;2.30;;;1.97;;
19179;SDS011;9722;48.754;8.868;2023-07-31T11:59:49;3.43;;;1.67;;
19179;SDS011;9722;48.754;8.868;2023-07-31T12:03:10;3.20;;;2.07;;
19179;SDS011;9722;48.754;8.868;2023-07-31T12:06:35;4.00;;;2.20;;
19179;SDS011;9722;48.754;8.868;2023-07-31T12:09:56;2.83;;;2.20;;
19179;SDS011;9722;48.754;8.868;2023-07-31T12:13:20;2.00;;;1.73;;
19179;SDS011;9722;48.754;8.868;2023-07-31T12:16:46;2.57;;;2.07;;
19179;SDS011;9722;48.754;8.868;2023-07-31T12:20:06;2.47;;;2.00;;
19179;SDS011;9722;48.754;8.868;2023-07-31T12:23:28;2.33;;;2.10;;
19179;SDS011;9722;48.754;8.868;2023-07-31T12:26:52;3.37;;;2.00;;
19179;SDS011;9722;48.754;8.868;2023-07-31T12:30:27;3.27;;;2.10;;
19179;SDS011;9722;48.754;8.868;2023-07-31T12:33:49;2.20;;;1.70;;
19179;SDS011;9722;48.754;8.868;2023-07-31T12:37:11;2.10;;;1.90;;
19179;SDS011;9722;48.754;8.868;2023-07-31T12:40:32;2.57;;;1.60;;
19179;SDS011;9722;48.754;8.868;2023-07-31T12:43:52;3.67;;;1.53;;
19179;SDS011;9722;48.754;8.868;2023-07-31T12:47:13;3.17;;;1.90;;
19179;SDS011;9722;48.754;8.868;2023-07-31T12:50:35;2.10;;;1.90;;
19179;SDS011;9722;48.754;8.868;2023-07-31T12:53:58;2.53;;;2.00;;
19179;SDS011;9722;48.754;8.868;2023-07-31T12:57:18;1.77;;;1.63;;
19179;SDS011;9722;48.754;8.868;2023-07-31T13:00:39;2.90;;;1.70;;
19179;SDS011;9722;48.754;8.868;2023-07-31T13:04:00;2.83;;;1.70;;
19179;SDS011;9722;48.754;8.868;2023-07-31T13:07:21;2.80;;;1.97;;
19179;SDS011;9722;48.754;8.868;2023-07-31T13:10:42;2.83;;;1.80;;
19179;SDS011;9722;48.754;8.868;2023-07-31T13:14:02;2.23;;;1.73;;
19179;SDS011;9722;48.754;8.868;2023-07-31T13:17:23;2.43;;;1.97;;
19179;SDS011;9722;48.754;8.868;2023-07-31T13:20:43;2.10;;;1.80;;
19179;SDS011;9722;48.754;8.868;2023-07-31T13:24:04;2.03;;;1.90;;
19179;SDS011;9722;48.754;8.868;2023-07-31T13:27:24;2.43;;;1.83;;
19179;SDS011;9722;48.754;8.868;2023-07-31T13:30:45;3.43;;;1.90;;
19179;SDS011;9722;48.754;8.868;2023-07-31T13:34:06;4.40;;;2.07;;
19179;SDS011;9722;48.754;8.868;2023-07-31T13:37:26;2.13;;;1.80;;
19179;SDS011;9722;48.754;8.868;2023-07-31T13:40:47;1.87;;;1.70;;
19179;SDS011;9722;48.754;8.868;2023-07-31T13:44:07;4.13;;;2.03;;
19179;SDS011;9722;48.754;8.868;2023-07-31T13:47:28;2.17;;;1.97;;
19179;SDS011;9722;48.754;8.868;2023-07-31T13:50:48;1.73;;;1.63;;
19179;SDS011;9722;48.754;8.868;2023-07-31T13:54:09;3.43;;;1.80;;
19179;SDS011;9722;48.754;8.868;2023-07-31T13:57:31;2.80;;;1.80;;
19179;SDS011;9722;48.754;8.868;2023-07-31T14:00:51;2.07;;;1.80;;
19179;SDS011;9722;48.754;8.868;2023-07-31T14:04:12;2.03;;;1.83;;
19179;SDS011;9722;48.754;8.868;2023-07-31T14:07:33;1.90;;;1.77;;
19179;SDS011;9722;48.754;8.868;2023-07-31T14:10:54;2.43;;;2.07;;
19179;SDS011;9722;48.754;8.868;2023-07-31T14:14:14;2.40;;;1.80;;
19179;SDS011;9722;48.754;8.868;2023-07-31T14:17:35;2.40;;;2.07;;
19179;SDS011;9722;48.754;8.868;2023-07-31T14:20:55;2.10;;;1.67;;
19179;SDS011;9722;48.754;8.868;2023-07-31T14:24:16;1.93;;;1.80;;
19179;SDS011;9722;48.754;8.868;2023-07-31T14:27:36;3.77;;;2.00;;
19179;SDS011;9722;48.754;8.868;2023-07-31T14:30:57;2.17;;;1.80;;
19179;SDS011;9722;48.754;8.868;2023-07-31T14:34:18;3.50;;;1.83;;
19179;SDS011;9722;48.754;8.868;2023-07-31T14:37:39;2.70;;;1.93;;
19179;SDS011;9722;48.754;8.868;2023-07-31T14:41:00;1.97;;;1.50;;
19179;SDS011;9722;48.754;8.868;2023-07-31T14:44:21;2.10;;;1.63;;
19179;SDS011;9722;48.754;8.868;2023-07-31T14:47:41;1.93;;;1.67;;
19179;SDS011;9722;48.754;8.868;2023-07-31T14:51:02;2.33;;;1.60;;
19179;SDS011;9722;48.754;8.868;2023-07-31T14:54:22;2.93;;;1.80;;
19179;SDS011;9722;48.754;8.868;2023-07-31T14:57:43;2.53;;;1.87;;
19179;SDS011;9722;48.754;8.868;2023-07-31T15:01:04;1.67;;;1.57;;
19179;SDS011;9722;48.754;8.868;2023-07-31T15:04:24;1.63;;;1.40;;
19179;SDS011;9722;48.754;8.868;2023-07-31T15:07:45;2.57;;;1.80;;
19179;SDS011;9722;48.754;8.868;2023-07-31T15:11:05;2.67;;;2.00;;
19179;SDS011;9722;48.754;8.868;2023-07-31T15:14:26;1.53;;;1.40;;
19179;SDS011;9722;48.754;8.868;2023-07-31T15:17:47;2.30;;;1.70;;
19179;SDS011;9722;48.754;8.868;2023-07-31T15:21:08;1.97;;;1.87;;
19179;SDS011;9722;48.754;8.868;2023-07-31T15:24:29;1.70;;;1.60;;
19179;SDS011;9722;48.754;8.868;2023-07-31T15:27:49;2.33;;;1.83;;
19179;SDS011;9722;48.754;8.868;2023-07-31T15:31:10;3.30;;;2.10;;
19179;SDS011;9722;48.754;8.868;2023-07-31T15:34:30;1.77;;;1.63;;
19179;SDS011;9722;48.754;8.868;2023-07-31T15:37:51;2.93;;;2.30;;
19179;SDS011;9722;48.754;8.868;2023-07-31T15:41:11;2.73;;;2.00;;
19179;SDS011;9722;48.754;8.868;2023-07-31T15:44:32;2.63;;;2.17;;
19179;SDS011;9722;48.754;8.868;2023-07-31T15:47:52;2.83;;;1.90;;
19179;SDS011;9722;48.754;8.868;2023-07-31T15:51:13;2.47;;;1.83;;
19179;SDS011;9722;48.754;8.868;2023-07-31T15:54:34;3.73;;;2.10;;
19179;SDS011;9722;48.754;8.868;2023-07-31T15:57:54;2.13;;;1.93;;
19179;SDS011;9722;48.754;8.868;2023-07-31T16:01:15;3.33;;;1.90;;
19179;SDS011;9722;48.754;8.868;2023-07-31T16:04:35;3.03;;;2.20;;
19179;SDS011;9722;48.754;8.868;2023-07-31T16:07:56;2.37;;;2.17;;
19179;SDS011;9722;48.754;8.868;2023-07-31T16:11:16;2.53;;;1.93;;
19179;SDS011;9722;48.754;8.868;2023-07-31T16:14:37;5.40;;;1.97;;
19179;SDS011;9722;48.754;8.868;2023-07-31T16:17:57;2.53;;;2.23;;
19179;SDS011;9722;48.754;8.868;2023-07-31T16:21:18;5.67;;;2.10;;
19179;SDS011;9722;48.754;8.868;2023-07-31T16:24:38;3.50;;;1.83;;
19179;SDS011;9722;48.754;8.868;2023-07-31T16:27:59;2.80;;;1.70;;
19179;SDS011;9722;48.754;8.868;2023-07-31T16:31:19;2.97;;;2.03;;
19179;SDS011;9722;48.754;8.868;2023-07-31T16:34:40;2.87;;;2.03;;
19179;SDS011;9722;48.754;8.868;2023-07-31T16:38:00;2.40;;;1.70;;
19179;SDS011;9722;48.754;8.868;2023-07-31T16:41:21;2.73;;;1.83;;
19179;SDS011;9722;48.754;8.868;2023-07-31T16:44:43;1.83;;;1.60;;
19179;SDS011;9722;48.754;8.868;2023-07-31T16:48:04;2.10;;;1.83;;
19179;SDS011;9722;48.754;8.868;2023-07-31T16:51:25;4.30;;;2.20;;
19179;SDS011;9722;48.754;8.868;2023-07-31T16:54:46;5.13;;;2.30;;
19179;SDS011;9722;48.754;8.868;2023-07-31T16:58:07;2.63;;;2.00;;
19179;SDS011;9722;48.754;8.868;2023-07-31T17:01:27;2.63;;;2.00;;
19179;SDS011;9722;48.754;8.868;2023-07-31T17:04:52;3.17;;;1.93;;
19179;SDS011;9722;48.754;8.868;2023-07-31T17:08:12;3.00;;;1.80;;
19179;SDS011;9722;48.754;8.868;2023-07-31T17:11:35;2.97;;;2.47;;
19179;SDS011;9722;48.754;8.868;2023-07-31T17:14:55;2.40;;;2.20;;
19179;SDS011;9722;48.754;8.868;2023-07-31T17:18:16;2.67;;;2.23;;
19179;SDS011;9722;48.754;8.868;2023-07-31T17:21:36;2.40;;;1.57;;
19179;SDS011;9722;48.754;8.868;2023-07-31T17:24:57;3.40;;;1.93;;
19179;SDS011;9722;48.754;8.868;2023-07-31T17:28:17;2.10;;;1.80;;
19179;SDS011;9722;48.754;8.868;2023-07-31T17:31:38;2.43;;;2.07;;
19179;SDS011;9722;48.754;8.868;2023-07-31T17:35:01;2.10;;;1.87;;
19179;SDS011;9722;48.754;8.868;2023-07-31T17:38:21;2.83;;;2.10;;
19179;SDS011;9722;48.754;8.868;2023-07-31T17:41:42;2.60;;;2.00;;
19179;SDS011;9722;48.754;8.868;2023-07-31T17:45:02;2.87;;;1.83;;
19179;SDS011;9722;48.754;8.868;2023-07-31T17:48:23;2.37;;;2.17;;
19179;SDS011;9722;48.754;8.868;2023-07-31T17:51:44;2.33;;;1.90;;
19179;SDS011;9722;48.754;8.868;2023-07-31T17:55:04;2.67;;;1.93;;
19179;SDS011;9722;48.754;8.868;2023-07-31T17:58:25;2.13;;;1.80;;
19179;SDS011;9722;48.754;8.868;2023-07-31T18:01:46;2.90;;;2.17;;
19179;SDS011;9722;48.754;8.868;2023-07-31T18:05:06;3.33;;;2.03;;
19179;SDS011;9722;48.754;8.868;2023-07-31T18:08:27;2.13;;;1.90;;
19179;SDS011;9722;48.754;8.868;2023-07-31T18:11:48;2.97;;;2.13;;
19179;SDS011;9722;48.754;8.868;2023-07-31T18:15:08;3.10;;;2.20;;
19179;SDS011;9722;48.754;8.868;2023-07-31T18:18:29;3.47;;;2.60;;
19179;SDS011;9722;48.754;8.868;2023-07-31T18:21:50;3.17;;;2.40;;
19179;SDS011;9722;48.754;8.868;2023-07-31T18:25:10;2.50;;;1.90;;
19179;SDS011;9722;48.754;8.868;2023-07-31T18:28:32;5.77;;;2.30;;
19179;SDS011;9722;48.754;8.868;2023-07-31T18:31:53;3.20;;;2.00;;
19179;SDS011;9722;48.754;8.868;2023-07-31T18:35:14;2.83;;;2.30;;
19179;SDS011;9722;48.754;8.868;2023-07-31T18:38:36;3.33;;;2.30;;
19179;SDS011;9722;48.754;8.868;2023-07-31T18:41:57;5.10;;;2.73;;
19179;SDS011;9722;48.754;8.868;2023-07-31T18:45:17;2.83;;;2.27;;
19179;SDS011;9722;48.754;8.868;2023-07-31T18:48:38;2.50;;;2.27;;
19179;SDS011;9722;48.754;8.868;2023-07-31T18:51:58;2.73;;;2.40;;
19179;SDS011;9722;48.754;8.868;2023-07-31T18:55:19;6.10;;;2.53;;
19179;SDS011;9722;48.754;8.868;2023-07-31T18:58:39;3.80;;;2.40;;
19179;SDS011;9722;48.754;8.868;2023-07-31T19:02:00;2.90;;;2.43;;
19179;SDS011;9722;48.754;8.868;2023-07-31T19:05:20;3.13;;;2.10;;
19179;SDS011;9722;48.754;8.868;2023-07-31T19:08:41;3.63;;;2.13;;
19179;SDS011;9722;48.754;8.868;2023-07-31T19:12:02;2.50;;;1.90;;
19179;SDS011;9722;48.754;8.868;2023-07-31T19:15:23;3.67;;;2.30;;
19179;SDS011;9722;48.754;8.868;2023-07-31T19:18:43;5.73;;;2.40;;
19179;SDS011;9722;48.754;8.868;2023-07-31T19:22:04;4.53;;;2.33;;
19179;SDS011;9722;48.754;8.868;2023-07-31T19:25:25;2.67;;;2.20;;
19179;SDS011;9722;48.754;8.868;2023-07-31T19:28:45;3.23;;;2.60;;
19179;SDS011;9722;48.754;8.868;2023-07-31T19:32:06;3.33;;;2.73;;
19179;SDS011;9722;48.754;8.868;2023-07-31T19:35:26;2.70;;;2.30;;
19179;SDS011;9722;48.754;8.868;2023-07-31T19:38:47;3.63;;;2.57;;
19179;SDS011;9722;48.754;8.868;2023-07-31T19:42:07;3.63;;;2.80;;
19179;SDS011;9722;48.754;8.868;2023-07-31T19:45:28;4.47;;;3.20;;
19179;SDS011;9722;48.754;8.868;2023-07-31T19:48:50;5.57;;;3.20;;
19179;SDS011;9722;48.754;8.868;2023-07-31T19:52:13;4.37;;;3.80;;
19179;SDS011;9722;48.754;8.868;2023-07-31T19:55:33;6.23;;;3.90;;
19179;SDS011;9722;48.754;8.868;2023-07-31T19:58:54;6.87;;;3.47;;
19179;SDS011;9722;48.754;8.868;2023-07-31T20:02:14;5.00;;;3.43;;
19179;SDS011;9722;48.754;8.868;2023-07-31T20:05:35;4.63;;;2.63;;
19179;SDS011;9722;48.754;8.868;2023-07-31T20:08:56;3.23;;;2.50;;
19179;SDS011;9722;48.754;8.868;2023-07-31T20:12:17;3.50;;;2.43;;
19179;SDS011;9722;48.754;8.868;2023-07-31T20:15:39;4.13;;;3.37;;
19179;SDS011;9722;48.754;8.868;2023-07-31T20:19:00;4.00;;;3.07;;
19179;SDS011;9722;48.754;8.868;2023-07-31T20:22:21;4.20;;;2.63;;
19179;SDS011;9722;48.754;8.868;2023-07-31T20:25:41;3.67;;;2.97;;
19179;SDS011;9722;48.754;8.868;2023-07-31T20:29:02;2.57;;;2.37;;
19179;SDS011;9722;48.754;8.868;2023-07-31T20:32:22;4.63;;;3.07;;